sensor_id;sensor_type;location;lat;lon;timestamp;temperature;humidity
9385;DHT22;4732;49.340;10.886;2023-07-20T03:01:55;17.50;99.90
9385;DHT22;4732;49.340;10.886;2023-07-20T03:04:21;17.60;99.90
9385;DHT22;4732;49.340;10.886;2023-07-20T03:06:47;17.50;99.90
9385;DHT22;4732;49.340;10.886;2023-07-20T03:09:12;17.60;99.90
9385;DHT22;4732;49.340;10.886;2023-07-20T03:11:38;17.50;99.90
9385;DHT22;4732;49.340;10.886;2023-07-20T03:14:03;17.50;99.90
9385;DHT22;4732;49.340;10.886;2023-07-20T03:16:29;17.50;99.90
9385;DHT22;4732;49.340;10.886;2023-07-20T03:18:58;17.50;99.90
9385;DHT22;4732;49.340;10.886;2023-07-20T03:21:24;17.40;99.90
9385;DHT22;4732;49.340;10.886;2023-07-20T03:23:49;17.40;99.90
9385;DHT22;4732;49.340;10.886;2023-07-20T03:26:15;17.30;99.90
9385;DHT22;4732;49.340;10.886;2023-07-20T03:28:41;17.30;99.90
9385;DHT22;4732;49.340;10.886;2023-07-20T03:31:06;17.30;99.90
9385;DHT22;4732;49.340;10.886;2023-07-20T03:33:32;17.20;99.90
9385;DHT22;4732;49.340;10.886;2023-07-20T03:35:59;17.30;99.90
9385;DHT22;4732;49.340;10.886;2023-07-20T03:38:25;17.30;99.90
9385;DHT22;4732;49.340;10.886;2023-07-20T03:40:55;17.30;99.90
9385;DHT22;4732;49.340;10.886;2023-07-20T03:43:22;17.20;99.90
9385;DHT22;4732;49.340;10.886;2023-07-20T03:45:48;17.20;99.90
9385;DHT22;4732;49.340;10.886;2023-07-20T03:48:15;17.20;99.90
9385;DHT22;4732;49.340;10.886;2023-07-20T03:50:41;17.20;99.90
9385;DHT22;4732;49.340;10.886;2023-07-20T03:53:06;17.10;99.90
9385;DHT22;4732;49.340;10.886;2023-07-20T03:55:32;17.00;99.90
9385;DHT22;4732;49.340;10.886;2023-07-20T03:57:57;17.10;99.90
9385;DHT22;4732;49.340;10.886;2023-07-20T04:00:23;17.10;99.90
9385;DHT22;4732;49.340;10.886;2023-07-20T04:02:49;17.10;99.90
9385;DHT22;4732;49.340;10.886;2023-07-20T04:05:15;17.10;99.90
9385;DHT22;4732;49.340;10.886;2023-07-20T04:07:40;17.10;99.90
9385;DHT22;4732;49.340;10.886;2023-07-20T04:10:06;17.00;99.90
9385;DHT22;4732;49.340;10.886;2023-07-20T04:12:32;17.00;99.90
9385;DHT22;4732;49.340;10.886;2023-07-20T04:14:57;17.10;99.90
9385;DHT22;4732;49.340;10.886;2023-07-20T04:17:23;17.20;99.90
9385;DHT22;4732;49.340;10.886;2023-07-20T04:19:48;17.00;99.90
9385;DHT22;4732;49.340;10.886;2023-07-20T04:22:14;17.10;99.90
9385;DHT22;4732;49.340;10.886;2023-07-20T04:24:42;17.10;99.90
9385;DHT22;4732;49.340;10.886;2023-07-20T04:27:08;17.10;99.90
9385;DHT22;4732;49.340;10.886;2023-07-20T04:29:59;17.10;99.90
9385;DHT22;4732;49.340;10.886;2023-07-20T04:32:27;17.20;99.90
9385;DHT22;4732;49.340;10.886;2023-07-20T04:34:53;17.20;99.90
9385;DHT22;4732;49.340;10.886;2023-07-20T04:37:18;17.30;99.90
9385;DHT22;4732;49.340;10.886;2023-07-20T04:39:44;17.40;99.90
9385;DHT22;4732;49.340;10.886;2023-07-20T04:42:09;17.40;99.90
9385;DHT22;4732;49.340;10.886;2023-07-20T04:44:35;17.50;99.90
9385;DHT22;4732;49.340;10.886;2023-07-20T04:47:00;17.60;99.90
9385;DHT22;4732;49.340;10.886;2023-07-20T04:49:26;17.70;99.90
9385;DHT22;4732;49.340;10.886;2023-07-20T04:51:52;17.80;99.90
9385;DHT22;4732;49.340;10.886;2023-07-20T04:54:17;17.80;99.90
9385;DHT22;4732;49.340;10.886;2023-07-20T04:56:44;17.80;99.90
9385;DHT22;4732;49.340;10.886;2023-07-20T04:59:09;17.80;99.90
9385;DHT22;4732;49.340;10.886;2023-07-20T05:01:35;17.90;99.90
9385;DHT22;4732;49.340;10.886;2023-07-20T05:04:01;17.90;99.90
9385;DHT22;4732;49.340;10.886;2023-07-20T05:06:27;18.00;99.90
9385;DHT22;4732;49.340;10.886;2023-07-20T05:08:52;18.00;99.90
9385;DHT22;4732;49.340;10.886;2023-07-20T05:11:18;18.10;99.90
9385;DHT22;4732;49.340;10.886;2023-07-20T05:13:43;18.10;99.90
9385;DHT22;4732;49.340;10.886;2023-07-20T05:16:09;18.20;99.90
9385;DHT22;4732;49.340;10.886;2023-07-20T05:18:34;18.20;99.90
9385;DHT22;4732;49.340;10.886;2023-07-20T05:21:00;18.20;99.90
9385;DHT22;4732;49.340;10.886;2023-07-20T05:23:25;18.00;99.90
9385;DHT22;4732;49.340;10.886;2023-07-20T05:25:58;18.00;99.90
9385;DHT22;4732;49.340;10.886;2023-07-20T05:28:25;17.90;99.90
9385;DHT22;4732;49.340;10.886;2023-07-20T05:30:52;17.90;99.90
9385;DHT22;4732;49.340;10.886;2023-07-20T05:33:21;18.80;99.90
9385;DHT22;4732;49.340;10.886;2023-07-20T05:35:47;18.10;99.90
9385;DHT22;4732;49.340;10.886;2023-07-20T05:38:15;18.10;99.90
9385;DHT22;4732;49.340;10.886;2023-07-20T05:40:47;18.30;99.90
9385;DHT22;4732;49.340;10.886;2023-07-20T05:43:13;19.20;99.90
9385;DHT22;4732;49.340;10.886;2023-07-20T05:45:42;18.50;99.90
9385;DHT22;4732;49.340;10.886;2023-07-20T05:48:08;18.50;99.90
9385;DHT22;4732;49.340;10.886;2023-07-20T05:50:38;18.60;99.90
9385;DHT22;4732;49.340;10.886;2023-07-20T05:53:06;18.60;99.90
9385;DHT22;4732;49.340;10.886;2023-07-20T05:55:32;18.50;99.90
9385;DHT22;4732;49.340;10.886;2023-07-20T05:58:01;18.70;99.90
9385;DHT22;4732;49.340;10.886;2023-07-20T06:00:30;18.80;99.90
9385;DHT22;4732;49.340;10.886;2023-07-20T06:02:55;18.90;99.90
9385;DHT22;4732;49.340;10.886;2023-07-20T06:05:22;19.10;99.90
9385;DHT22;4732;49.340;10.886;2023-07-20T06:07:52;19.20;99.90
9385;DHT22;4732;49.340;10.886;2023-07-20T06:10:18;19.20;99.90
9385;DHT22;4732;49.340;10.886;2023-07-20T06:12:46;19.30;99.90
9385;DHT22;4732;49.340;10.886;2023-07-20T06:15:28;20.70;99.90
9385;DHT22;4732;49.340;10.886;2023-07-20T06:17:55;19.30;99.90
9385;DHT22;4732;49.340;10.886;2023-07-20T06:20:22;19.50;99.90
9385;DHT22;4732;49.340;10.886;2023-07-20T06:22:47;19.50;99.90
9385;DHT22;4732;49.340;10.886;2023-07-20T06:25:13;19.50;99.90
9385;DHT22;4732;49.340;10.886;2023-07-20T06:27:39;19.60;99.90
9385;DHT22;4732;49.340;10.886;2023-07-20T06:30:05;19.70;99.90
9385;DHT22;4732;49.340;10.886;2023-07-20T06:32:30;19.70;99.90
9385;DHT22;4732;49.340;10.886;2023-07-20T06:34:56;19.80;99.90
9385;DHT22;4732;49.340;10.886;2023-07-20T06:37:22;19.90;99.90
9385;DHT22;4732;49.340;10.886;2023-07-20T06:39:54;20.00;99.90
9385;DHT22;4732;49.340;10.886;2023-07-20T06:42:19;20.10;99.90
9385;DHT22;4732;49.340;10.886;2023-07-20T06:44:47;20.30;99.90
9385;DHT22;4732;49.340;10.886;2023-07-20T06:47:13;20.30;99.90
9385;DHT22;4732;49.340;10.886;2023-07-20T06:49:38;20.20;99.90
9385;DHT22;4732;49.340;10.886;2023-07-20T06:52:04;20.40;99.90
9385;DHT22;4732;49.340;10.886;2023-07-20T10:10:07;24.70;96.20
9385;DHT22;4732;49.340;10.886;2023-07-20T10:12:36;24.30;97.30
9385;DHT22;4732;49.340;10.886;2023-07-20T10:15:24;23.80;97.90
9385;DHT22;4732;49.340;10.886;2023-07-20T10:17:58;23.90;99.10
9385;DHT22;4732;49.340;10.886;2023-07-20T10:20:25;24.40;99.10
9385;DHT22;4732;49.340;10.886;2023-07-20T10:22:53;24.70;97.30
9385;DHT22;4732;49.340;10.886;2023-07-20T10:25:20;25.10;95.40
9385;DHT22;4732;49.340;10.886;2023-07-20T10:27:48;25.20;95.10
9385;DHT22;4732;49.340;10.886;2023-07-20T10:30:13;25.20;94.40
9385;DHT22;4732;49.340;10.886;2023-07-20T10:32:40;25.40;96.00
9385;DHT22;4732;49.340;10.886;2023-07-20T10:35:14;25.30;95.40
9385;DHT22;4732;49.340;10.886;2023-07-20T10:37:51;25.10;95.50
9385;DHT22;4732;49.340;10.886;2023-07-20T10:40:24;24.70;95.00
9385;DHT22;4732;49.340;10.886;2023-07-20T10:42:50;24.40;95.60
9385;DHT22;4732;49.340;10.886;2023-07-20T10:45:17;24.60;94.80
9385;DHT22;4732;49.340;10.886;2023-07-20T10:47:46;25.20;94.10
9385;DHT22;4732;49.340;10.886;2023-07-20T10:50:12;25.50;92.10
9385;DHT22;4732;49.340;10.886;2023-07-20T10:55:48;25.90;91.90
9385;DHT22;4732;49.340;10.886;2023-07-20T10:58:16;26.40;91.70
9385;DHT22;4732;49.340;10.886;2023-07-20T11:01:02;26.80;91.30
9385;DHT22;4732;49.340;10.886;2023-07-20T11:03:32;26.90;91.00
9385;DHT22;4732;49.340;10.886;2023-07-20T11:05:58;27.10;91.30
9385;DHT22;4732;49.340;10.886;2023-07-20T11:08:43;27.20;88.10
9385;DHT22;4732;49.340;10.886;2023-07-20T11:11:32;27.20;88.70
9385;DHT22;4732;49.340;10.886;2023-07-20T11:13:59;27.40;90.20
9385;DHT22;4732;49.340;10.886;2023-07-20T11:16:40;27.30;81.50
9385;DHT22;4732;49.340;10.886;2023-07-20T11:21:42;27.60;82.00
9385;DHT22;4732;49.340;10.886;2023-07-20T11:24:08;27.40;76.80
9385;DHT22;4732;49.340;10.886;2023-07-20T11:26:43;27.50;84.20
9385;DHT22;4732;49.340;10.886;2023-07-20T11:29:08;27.70;84.30
9385;DHT22;4732;49.340;10.886;2023-07-20T11:31:41;28.10;80.00
9385;DHT22;4732;49.340;10.886;2023-07-20T11:34:10;27.90;75.10
9385;DHT22;4732;49.340;10.886;2023-07-20T11:36:49;28.00;75.70
9385;DHT22;4732;49.340;10.886;2023-07-20T11:39:16;28.10;80.00
9385;DHT22;4732;49.340;10.886;2023-07-20T11:41:50;28.30;77.10
9385;DHT22;4732;49.340;10.886;2023-07-20T11:44:20;28.10;77.60
9385;DHT22;4732;49.340;10.886;2023-07-20T11:47:04;28.30;76.70
9385;DHT22;4732;49.340;10.886;2023-07-20T11:49:43;28.00;74.10
9385;DHT22;4732;49.340;10.886;2023-07-20T11:52:16;27.50;76.20
9385;DHT22;4732;49.340;10.886;2023-07-20T11:54:45;27.40;78.00
9385;DHT22;4732;49.340;10.886;2023-07-20T11:57:20;27.70;80.80
9385;DHT22;4732;49.340;10.886;2023-07-20T11:59:55;27.90;76.00
9385;DHT22;4732;49.340;10.886;2023-07-20T12:02:23;27.80;78.60
9385;DHT22;4732;49.340;10.886;2023-07-20T12:04:50;27.50;75.50
9385;DHT22;4732;49.340;10.886;2023-07-20T12:07:16;27.40;77.90
9385;DHT22;4732;49.340;10.886;2023-07-20T12:09:42;27.60;79.30
9385;DHT22;4732;49.340;10.886;2023-07-20T12:12:10;28.00;77.60
9385;DHT22;4732;49.340;10.886;2023-07-20T12:14:39;27.50;73.20
9385;DHT22;4732;49.340;10.886;2023-07-20T12:17:04;26.80;73.30
9385;DHT22;4732;49.340;10.886;2023-07-20T12:19:38;26.40;78.00
9385;DHT22;4732;49.340;10.886;2023-07-20T12:22:04;26.60;79.50
9385;DHT22;4732;49.340;10.886;2023-07-20T12:24:31;27.10;79.10
9385;DHT22;4732;49.340;10.886;2023-07-20T12:27:00;27.60;78.40
9385;DHT22;4732;49.340;10.886;2023-07-20T12:29:26;27.70;77.00
9385;DHT22;4732;49.340;10.886;2023-07-20T12:31:51;28.10;76.90
9385;DHT22;4732;49.340;10.886;2023-07-20T12:34:17;28.20;74.40
9385;DHT22;4732;49.340;10.886;2023-07-20T12:36:43;28.40;75.30
9385;DHT22;4732;49.340;10.886;2023-07-20T12:39:08;28.20;71.50
9385;DHT22;4732;49.340;10.886;2023-07-20T12:41:35;28.20;73.80
9385;DHT22;4732;49.340;10.886;2023-07-20T12:44:00;27.20;71.90
9385;DHT22;4732;49.340;10.886;2023-07-20T12:46:26;27.20;74.50
9385;DHT22;4732;49.340;10.886;2023-07-20T12:48:53;27.10;74.70
9385;DHT22;4732;49.340;10.886;2023-07-20T12:51:18;27.20;74.10
9385;DHT22;4732;49.340;10.886;2023-07-20T12:53:44;27.20;75.60
9385;DHT22;4732;49.340;10.886;2023-07-20T12:56:10;26.90;75.20
9385;DHT22;4732;49.340;10.886;2023-07-20T12:58:35;26.90;77.20
9385;DHT22;4732;49.340;10.886;2023-07-20T13:01:02;27.40;78.30
9385;DHT22;4732;49.340;10.886;2023-07-20T13:03:27;27.80;74.30
9385;DHT22;4732;49.340;10.886;2023-07-20T13:05:55;28.30;75.30
9385;DHT22;4732;49.340;10.886;2023-07-20T13:08:21;28.00;72.60
9385;DHT22;4732;49.340;10.886;2023-07-20T13:10:50;28.00;74.50
9385;DHT22;4732;49.340;10.886;2023-07-20T13:13:19;27.40;74.80
9385;DHT22;4732;49.340;10.886;2023-07-20T13:15:45;27.50;77.40
9385;DHT22;4732;49.340;10.886;2023-07-20T13:18:11;27.60;78.00
9385;DHT22;4732;49.340;10.886;2023-07-20T13:20:37;27.60;74.20
9385;DHT22;4732;49.340;10.886;2023-07-20T13:23:04;27.80;75.60
9385;DHT22;4732;49.340;10.886;2023-07-20T13:25:29;27.90;74.80
9385;DHT22;4732;49.340;10.886;2023-07-20T13:27:55;28.40;75.10
9385;DHT22;4732;49.340;10.886;2023-07-20T13:30:21;28.60;72.40
9385;DHT22;4732;49.340;10.886;2023-07-20T13:32:47;28.50;73.50
9385;DHT22;4732;49.340;10.886;2023-07-20T13:35:12;28.60;71.80
9385;DHT22;4732;49.340;10.886;2023-07-20T13:37:38;28.10;71.10
9385;DHT22;4732;49.340;10.886;2023-07-20T13:40:04;28.30;68.70
9385;DHT22;4732;49.340;10.886;2023-07-20T13:42:31;28.40;71.70
9385;DHT22;4732;49.340;10.886;2023-07-20T13:44:57;28.70;69.10
9385;DHT22;4732;49.340;10.886;2023-07-20T13:47:22;28.80;69.30
9385;DHT22;4732;49.340;10.886;2023-07-20T13:49:48;28.90;65.10
9385;DHT22;4732;49.340;10.886;2023-07-20T13:52:14;28.90;63.30
9385;DHT22;4732;49.340;10.886;2023-07-20T13:54:40;29.10;61.60
9385;DHT22;4732;49.340;10.886;2023-07-20T13:57:05;29.10;62.30
9385;DHT22;4732;49.340;10.886;2023-07-20T13:59:31;28.90;60.00
9385;DHT22;4732;49.340;10.886;2023-07-20T14:01:57;28.80;59.10
9385;DHT22;4732;49.340;10.886;2023-07-20T14:04:22;29.40;65.10
9385;DHT22;4732;49.340;10.886;2023-07-20T14:06:48;29.50;63.00
9385;DHT22;4732;49.340;10.886;2023-07-20T14:09:13;28.80;63.80
9385;DHT22;4732;49.340;10.886;2023-07-20T14:11:39;28.30;66.00
9385;DHT22;4732;49.340;10.886;2023-07-20T14:14:04;28.00;64.30
9385;DHT22;4732;49.340;10.886;2023-07-20T14:16:30;27.90;64.80
9385;DHT22;4732;49.340;10.886;2023-07-20T14:18:58;27.70;66.90
9385;DHT22;4732;49.340;10.886;2023-07-20T14:21:23;27.20;70.00
9385;DHT22;4732;49.340;10.886;2023-07-20T14:23:52;27.00;70.00
9385;DHT22;4732;49.340;10.886;2023-07-20T14:26:20;26.80;70.10
9385;DHT22;4732;49.340;10.886;2023-07-20T14:28:46;26.70;70.50
9385;DHT22;4732;49.340;10.886;2023-07-20T14:31:12;26.70;70.80
9385;DHT22;4732;49.340;10.886;2023-07-20T14:33:37;27.30;67.40
9385;DHT22;4732;49.340;10.886;2023-07-20T14:36:03;27.30;70.90
9385;DHT22;4732;49.340;10.886;2023-07-20T14:38:31;27.30;69.30
9385;DHT22;4732;49.340;10.886;2023-07-20T14:40:59;27.80;69.70
9385;DHT22;4732;49.340;10.886;2023-07-20T14:43:25;28.10;68.40
9385;DHT22;4732;49.340;10.886;2023-07-20T14:45:53;28.10;68.60
9385;DHT22;4732;49.340;10.886;2023-07-20T14:48:19;27.50;70.10
9385;DHT22;4732;49.340;10.886;2023-07-20T14:50:45;27.20;67.80
9385;DHT22;4732;49.340;10.886;2023-07-20T14:53:13;27.00;72.10
9385;DHT22;4732;49.340;10.886;2023-07-20T14:55:38;27.50;73.20
9385;DHT22;4732;49.340;10.886;2023-07-20T14:58:04;27.30;69.50
9385;DHT22;4732;49.340;10.886;2023-07-20T15:00:29;27.20;72.50
9385;DHT22;4732;49.340;10.886;2023-07-20T15:02:56;27.70;75.00
9385;DHT22;4732;49.340;10.886;2023-07-20T15:05:22;27.40;70.00
9385;DHT22;4732;49.340;10.886;2023-07-20T15:07:51;27.20;73.80
9385;DHT22;4732;49.340;10.886;2023-07-20T15:10:16;27.10;72.10
9385;DHT22;4732;49.340;10.886;2023-07-20T15:12:42;27.10;73.90
9385;DHT22;4732;49.340;10.886;2023-07-20T15:15:11;27.80;72.50
9385;DHT22;4732;49.340;10.886;2023-07-20T15:17:38;28.30;72.20
9385;DHT22;4732;49.340;10.886;2023-07-20T15:20:06;28.70;68.80
9385;DHT22;4732;49.340;10.886;2023-07-20T15:22:33;29.20;69.60
9385;DHT22;4732;49.340;10.886;2023-07-20T15:24:58;29.50;69.30
9385;DHT22;4732;49.340;10.886;2023-07-20T15:27:24;29.50;68.30
9385;DHT22;4732;49.340;10.886;2023-07-20T15:29:50;29.00;67.50
9385;DHT22;4732;49.340;10.886;2023-07-20T15:32:19;28.10;67.90
9385;DHT22;4732;49.340;10.886;2023-07-20T15:34:45;27.50;70.80
9385;DHT22;4732;49.340;10.886;2023-07-20T15:37:11;27.40;71.40
9385;DHT22;4732;49.340;10.886;2023-07-20T15:39:37;27.30;73.30
9385;DHT22;4732;49.340;10.886;2023-07-20T15:42:03;27.00;73.00
9385;DHT22;4732;49.340;10.886;2023-07-20T15:44:38;26.90;74.30
9385;DHT22;4732;49.340;10.886;2023-07-20T15:47:04;26.60;72.40
9385;DHT22;4732;49.340;10.886;2023-07-20T15:49:31;26.90;73.10
9385;DHT22;4732;49.340;10.886;2023-07-20T15:51:58;27.20;70.40
9385;DHT22;4732;49.340;10.886;2023-07-20T15:54:24;27.70;71.90
9385;DHT22;4732;49.340;10.886;2023-07-20T15:56:50;28.10;71.80
9385;DHT22;4732;49.340;10.886;2023-07-20T15:59:18;28.40;72.60
9385;DHT22;4732;49.340;10.886;2023-07-20T16:01:46;28.70;70.80
9385;DHT22;4732;49.340;10.886;2023-07-20T16:04:13;28.80;68.70
9385;DHT22;4732;49.340;10.886;2023-07-20T16:06:48;28.70;66.70
9385;DHT22;4732;49.340;10.886;2023-07-20T16:09:16;28.50;68.20
9385;DHT22;4732;49.340;10.886;2023-07-20T16:11:41;28.30;68.10
9385;DHT22;4732;49.340;10.886;2023-07-20T16:14:07;28.20;67.90
9385;DHT22;4732;49.340;10.886;2023-07-20T16:16:36;28.40;70.00
9385;DHT22;4732;49.340;10.886;2023-07-20T16:19:02;28.70;67.50
9385;DHT22;4732;49.340;10.886;2023-07-20T16:21:28;28.40;67.30
9385;DHT22;4732;49.340;10.886;2023-07-20T16:27:17;28.40;67.40
9385;DHT22;4732;49.340;10.886;2023-07-20T16:29:42;28.20;67.30
9385;DHT22;4732;49.340;10.886;2023-07-20T16:32:08;28.10;67.00
9385;DHT22;4732;49.340;10.886;2023-07-20T16:34:33;28.10;67.30
9385;DHT22;4732;49.340;10.886;2023-07-20T16:37:02;28.10;68.10
9385;DHT22;4732;49.340;10.886;2023-07-20T16:39:28;28.00;67.10
9385;DHT22;4732;49.340;10.886;2023-07-20T16:41:56;27.90;67.90
9385;DHT22;4732;49.340;10.886;2023-07-20T16:44:22;27.70;68.60
9385;DHT22;4732;49.340;10.886;2023-07-20T16:46:54;27.50;67.20
9385;DHT22;4732;49.340;10.886;2023-07-20T16:49:19;27.60;69.20
9385;DHT22;4732;49.340;10.886;2023-07-20T16:51:45;27.60;68.80
9385;DHT22;4732;49.340;10.886;2023-07-20T16:54:20;27.50;69.30
9385;DHT22;4732;49.340;10.886;2023-07-20T16:56:45;27.40;69.80
9385;DHT22;4732;49.340;10.886;2023-07-20T16:59:13;27.30;71.20
9385;DHT22;4732;49.340;10.886;2023-07-20T17:01:48;27.10;68.20
9385;DHT22;4732;49.340;10.886;2023-07-20T17:04:16;26.70;67.90
9385;DHT22;4732;49.340;10.886;2023-07-20T17:06:42;26.40;71.80
9385;DHT22;4732;49.340;10.886;2023-07-20T17:11:59;26.00;72.60
9385;DHT22;4732;49.340;10.886;2023-07-20T17:14:25;25.70;71.50
9385;DHT22;4732;49.340;10.886;2023-07-20T17:16:51;25.70;72.90
9385;DHT22;4732;49.340;10.886;2023-07-20T17:19:17;25.70;71.60
9385;DHT22;4732;49.340;10.886;2023-07-20T17:21:44;25.70;68.70
9385;DHT22;4732;49.340;10.886;2023-07-20T17:24:10;25.60;70.10
9385;DHT22;4732;49.340;10.886;2023-07-20T17:26:36;25.60;71.90
9385;DHT22;4732;49.340;10.886;2023-07-20T17:29:02;25.30;72.40
9385;DHT22;4732;49.340;10.886;2023-07-20T17:31:29;25.20;73.20
9385;DHT22;4732;49.340;10.886;2023-07-20T17:33:55;25.20;74.30
9385;DHT22;4732;49.340;10.886;2023-07-20T17:36:21;25.20;72.00
9385;DHT22;4732;49.340;10.886;2023-07-20T17:38:47;25.10;73.90
9385;DHT22;4732;49.340;10.886;2023-07-20T17:41:14;25.10;73.30
9385;DHT22;4732;49.340;10.886;2023-07-20T17:43:40;25.00;73.80
9385;DHT22;4732;49.340;10.886;2023-07-20T17:46:06;24.90;74.20
9385;DHT22;4732;49.340;10.886;2023-07-20T17:48:32;24.70;74.20
9385;DHT22;4732;49.340;10.886;2023-07-20T17:50:58;24.60;75.40
9385;DHT22;4732;49.340;10.886;2023-07-20T17:53:26;24.60;75.60
9385;DHT22;4732;49.340;10.886;2023-07-20T17:55:51;24.40;76.20
9385;DHT22;4732;49.340;10.886;2023-07-20T17:58:17;24.30;77.00
9385;DHT22;4732;49.340;10.886;2023-07-20T18:00:43;24.20;78.20
9385;DHT22;4732;49.340;10.886;2023-07-20T18:03:08;24.20;77.30
9385;DHT22;4732;49.340;10.886;2023-07-20T18:05:34;24.10;78.10
9385;DHT22;4732;49.340;10.886;2023-07-20T18:08:01;24.00;77.90
9385;DHT22;4732;49.340;10.886;2023-07-20T18:10:26;24.00;78.70
9385;DHT22;4732;49.340;10.886;2023-07-20T18:12:52;23.90;78.60
9385;DHT22;4732;49.340;10.886;2023-07-20T18:15:18;23.90;79.30
9385;DHT22;4732;49.340;10.886;2023-07-20T18:17:44;23.80;80.00
9385;DHT22;4732;49.340;10.886;2023-07-20T18:20:09;23.70;80.60
9385;DHT22;4732;49.340;10.886;2023-07-20T18:22:36;23.80;80.60
9385;DHT22;4732;49.340;10.886;2023-07-20T18:25:02;23.70;81.10
9385;DHT22;4732;49.340;10.886;2023-07-20T18:27:28;23.70;82.10
9385;DHT22;4732;49.340;10.886;2023-07-20T18:29:54;23.60;82.00
9385;DHT22;4732;49.340;10.886;2023-07-20T18:32:20;23.50;82.00
9385;DHT22;4732;49.340;10.886;2023-07-20T18:34:45;23.40;82.50
9385;DHT22;4732;49.340;10.886;2023-07-20T18:37:11;23.40;82.40
9385;DHT22;4732;49.340;10.886;2023-07-20T18:39:37;23.20;83.40
9385;DHT22;4732;49.340;10.886;2023-07-20T18:42:03;23.30;83.70
9385;DHT22;4732;49.340;10.886;2023-07-20T18:44:29;23.20;85.20
9385;DHT22;4732;49.340;10.886;2023-07-20T18:46:54;23.10;84.60
9385;DHT22;4732;49.340;10.886;2023-07-20T18:49:22;23.10;84.70
9385;DHT22;4732;49.340;10.886;2023-07-20T18:51:48;23.00;85.20
9385;DHT22;4732;49.340;10.886;2023-07-20T18:54:14;22.90;84.90
9385;DHT22;4732;49.340;10.886;2023-07-20T18:56:43;22.80;84.90
9385;DHT22;4732;49.340;10.886;2023-07-20T18:59:09;22.70;85.40
9385;DHT22;4732;49.340;10.886;2023-07-20T19:01:35;22.80;85.10
9385;DHT22;4732;49.340;10.886;2023-07-20T19:04:00;22.70;85.00
9385;DHT22;4732;49.340;10.886;2023-07-20T19:06:27;22.60;85.40
9385;DHT22;4732;49.340;10.886;2023-07-20T19:08:52;22.50;87.20
9385;DHT22;4732;49.340;10.886;2023-07-20T19:11:18;22.40;87.80
9385;DHT22;4732;49.340;10.886;2023-07-20T19:13:47;22.20;87.60
9385;DHT22;4732;49.340;10.886;2023-07-20T19:16:12;22.20;90.00
9385;DHT22;4732;49.340;10.886;2023-07-20T19:18:38;22.10;90.90
9385;DHT22;4732;49.340;10.886;2023-07-20T19:21:04;22.10;91.90
9385;DHT22;4732;49.340;10.886;2023-07-20T19:23:31;21.90;92.50
9385;DHT22;4732;49.340;10.886;2023-07-20T19:25:57;21.70;92.30
9385;DHT22;4732;49.340;10.886;2023-07-20T19:28:23;21.60;92.70
9385;DHT22;4732;49.340;10.886;2023-07-20T19:30:49;21.60;92.40
9385;DHT22;4732;49.340;10.886;2023-07-20T19:33:15;21.40;92.60
9385;DHT22;4732;49.340;10.886;2023-07-20T19:35:40;21.40;93.50
9385;DHT22;4732;49.340;10.886;2023-07-20T19:38:06;21.40;93.70
9385;DHT22;4732;49.340;10.886;2023-07-20T19:40:32;21.30;94.10
9385;DHT22;4732;49.340;10.886;2023-07-20T19:42:59;21.20;94.50
9385;DHT22;4732;49.340;10.886;2023-07-20T19:45:25;21.00;95.30
9385;DHT22;4732;49.340;10.886;2023-07-20T19:47:51;20.90;95.90
9385;DHT22;4732;49.340;10.886;2023-07-20T19:50:16;20.70;95.70
9385;DHT22;4732;49.340;10.886;2023-07-20T19:52:42;20.60;95.80
9385;DHT22;4732;49.340;10.886;2023-07-20T19:55:12;20.60;96.40
9385;DHT22;4732;49.340;10.886;2023-07-20T19:57:37;20.60;96.80
9385;DHT22;4732;49.340;10.886;2023-07-20T20:00:03;20.60;97.10
9385;DHT22;4732;49.340;10.886;2023-07-20T20:02:39;20.60;97.10
9385;DHT22;4732;49.340;10.886;2023-07-20T20:05:09;20.50;97.30
9385;DHT22;4732;49.340;10.886;2023-07-20T20:07:36;20.50;97.20
9385;DHT22;4732;49.340;10.886;2023-07-20T20:10:03;21.70;98.20
9385;DHT22;4732;49.340;10.886;2023-07-20T20:12:30;20.40;98.20
9385;DHT22;4732;49.340;10.886;2023-07-20T20:14:58;20.30;99.20
9385;DHT22;4732;49.340;10.886;2023-07-20T20:17:24;20.10;99.40
9385;DHT22;4732;49.340;10.886;2023-07-20T20:19:49;20.10;99.50
9385;DHT22;4732;49.340;10.886;2023-07-20T20:22:16;20.00;99.80
9385;DHT22;4732;49.340;10.886;2023-07-20T20:24:44;20.00;99.90
9385;DHT22;4732;49.340;10.886;2023-07-20T20:27:10;19.70;99.90
9385;DHT22;4732;49.340;10.886;2023-07-20T20:29:35;19.80;99.90
9385;DHT22;4732;49.340;10.886;2023-07-20T20:32:04;19.70;99.90
9385;DHT22;4732;49.340;10.886;2023-07-20T20:34:32;19.50;99.90
9385;DHT22;4732;49.340;10.886;2023-07-20T20:36:58;19.50;99.90
9385;DHT22;4732;49.340;10.886;2023-07-20T20:39:24;19.60;99.90
9385;DHT22;4732;49.340;10.886;2023-07-20T20:41:50;19.50;99.90
9385;DHT22;4732;49.340;10.886;2023-07-20T20:44:18;19.50;99.90
9385;DHT22;4732;49.340;10.886;2023-07-20T20:46:51;19.50;99.90
9385;DHT22;4732;49.340;10.886;2023-07-20T20:49:17;19.50;99.90
9385;DHT22;4732;49.340;10.886;2023-07-20T20:51:42;19.50;99.90
9385;DHT22;4732;49.340;10.886;2023-07-20T20:54:09;19.40;99.90
9385;DHT22;4732;49.340;10.886;2023-07-20T20:56:35;19.40;99.90
9385;DHT22;4732;49.340;10.886;2023-07-20T20:59:01;19.40;99.90
9385;DHT22;4732;49.340;10.886;2023-07-20T21:01:27;19.30;99.90
9385;DHT22;4732;49.340;10.886;2023-07-20T21:03:53;19.20;99.90
9385;DHT22;4732;49.340;10.886;2023-07-20T21:06:19;19.10;99.90
9385;DHT22;4732;49.340;10.886;2023-07-20T21:08:44;19.00;99.90
9385;DHT22;4732;49.340;10.886;2023-07-20T21:11:10;19.00;99.90
9385;DHT22;4732;49.340;10.886;2023-07-20T21:13:36;18.90;99.90
9385;DHT22;4732;49.340;10.886;2023-07-20T21:16:02;18.90;99.90
9385;DHT22;4732;49.340;10.886;2023-07-20T21:18:28;18.90;99.90
9385;DHT22;4732;49.340;10.886;2023-07-20T21:20:54;18.90;99.90
9385;DHT22;4732;49.340;10.886;2023-07-20T21:23:20;18.90;99.90
9385;DHT22;4732;49.340;10.886;2023-07-20T21:25:46;18.90;99.90
9385;DHT22;4732;49.340;10.886;2023-07-20T21:28:12;18.90;99.90
9385;DHT22;4732;49.340;10.886;2023-07-20T21:30:38;18.90;99.90
9385;DHT22;4732;49.340;10.886;2023-07-20T21:33:07;18.80;99.90
9385;DHT22;4732;49.340;10.886;2023-07-20T21:35:33;18.80;99.90
9385;DHT22;4732;49.340;10.886;2023-07-20T21:37:59;18.80;99.90
9385;DHT22;4732;49.340;10.886;2023-07-20T21:40:25;18.70;99.90
9385;DHT22;4732;49.340;10.886;2023-07-20T21:42:53;18.70;99.90
9385;DHT22;4732;49.340;10.886;2023-07-20T21:45:19;18.70;99.90
9385;DHT22;4732;49.340;10.886;2023-07-20T21:47:49;18.60;99.90
9385;DHT22;4732;49.340;10.886;2023-07-20T21:50:14;20.60;99.90
9385;DHT22;4732;49.340;10.886;2023-07-20T21:52:41;18.50;99.90
9385;DHT22;4732;49.340;10.886;2023-07-20T21:55:06;20.40;99.90
9385;DHT22;4732;49.340;10.886;2023-07-20T21:57:33;18.40;99.90
9385;DHT22;4732;49.340;10.886;2023-07-20T21:59:59;18.50;99.90
9385;DHT22;4732;49.340;10.886;2023-07-20T22:02:24;18.40;99.90
9385;DHT22;4732;49.340;10.886;2023-07-20T22:04:50;18.40;99.90
9385;DHT22;4732;49.340;10.886;2023-07-20T22:07:15;18.20;99.90
9385;DHT22;4732;49.340;10.886;2023-07-20T22:09:44;18.20;99.90
9385;DHT22;4732;49.340;10.886;2023-07-20T22:12:11;18.00;99.90